sensor_id;sensor_type;location;lat;lon;timestamp;P1;durP1;ratioP1;P2;durP2;ratioP2
12681;SDS011;6405;59.208;18.216;2024-03-29T00:00:45;37.10;;;18.10;;
12681;SDS011;6405;59.208;18.216;2024-03-29T00:03:11;38.70;;;18.60;;
12681;SDS011;6405;59.208;18.216;2024-03-29T00:05:37;39.73;;;18.50;;
12681;SDS011;6405;59.208;18.216;2024-03-29T00:08:03;35.27;;;18.70;;
12681;SDS011;6405;59.208;18.216;2024-03-29T00:10:29;31.87;;;19.03;;
12681;SDS011;6405;59.208;18.216;2024-03-29T00:12:56;44.80;;;19.50;;
12681;SDS011;6405;59.208;18.216;2024-03-29T00:15:22;46.90;;;19.80;;
12681;SDS011;6405;59.208;18.216;2024-03-29T00:17:47;41.77;;;20.17;;
12681;SDS011;6405;59.208;18.216;2024-03-29T00:20:13;39.43;;;20.60;;
12681;SDS011;6405;59.208;18.216;2024-03-29T00:22:39;42.47;;;19.40;;
12681;SDS011;6405;59.208;18.216;2024-03-29T00:25:05;46.00;;;20.53;;
12681;SDS011;6405;59.208;18.216;2024-03-29T00:27:31;39.30;;;21.17;;
12681;SDS011;6405;59.208;18.216;2024-03-29T00:29:57;41.90;;;19.70;;
12681;SDS011;6405;59.208;18.216;2024-03-29T00:32:25;41.87;;;22.17;;
12681;SDS011;6405;59.208;18.216;2024-03-29T00:34:51;50.17;;;23.30;;
12681;SDS011;6405;59.208;18.216;2024-03-29T00:37:17;49.23;;;21.77;;
12681;SDS011;6405;59.208;18.216;2024-03-29T00:39:44;40.87;;;21.63;;
12681;SDS011;6405;59.208;18.216;2024-03-29T00:42:10;46.63;;;19.63;;
12681;SDS011;6405;59.208;18.216;2024-03-29T00:44:46;56.93;;;24.37;;
12681;SDS011;6405;59.208;18.216;2024-03-29T00:47:12;49.23;;;21.97;;
12681;SDS011;6405;59.208;18.216;2024-03-29T00:49:38;62.13;;;23.10;;
12681;SDS011;6405;59.208;18.216;2024-03-29T00:52:04;67.40;;;23.27;;
12681;SDS011;6405;59.208;18.216;2024-03-29T00:54:30;46.67;;;23.63;;
12681;SDS011;6405;59.208;18.216;2024-03-29T00:56:56;51.77;;;23.03;;
12681;SDS011;6405;59.208;18.216;2024-03-29T00:59:22;43.70;;;22.77;;
12681;SDS011;6405;59.208;18.216;2024-03-29T01:01:49;40.97;;;22.30;;
12681;SDS011;6405;59.208;18.216;2024-03-29T01:04:15;56.10;;;23.90;;
12681;SDS011;6405;59.208;18.216;2024-03-29T01:06:41;48.63;;;22.73;;
12681;SDS011;6405;59.208;18.216;2024-03-29T01:09:08;56.00;;;21.23;;
12681;SDS011;6405;59.208;18.216;2024-03-29T01:11:36;51.60;;;22.43;;
12681;SDS011;6405;59.208;18.216;2024-03-29T01:14:03;44.13;;;22.10;;
12681;SDS011;6405;59.208;18.216;2024-03-29T01:16:29;41.07;;;22.10;;
12681;SDS011;6405;59.208;18.216;2024-03-29T01:18:55;45.50;;;21.00;;
12681;SDS011;6405;59.208;18.216;2024-03-29T01:21:22;59.40;;;23.63;;
12681;SDS011;6405;59.208;18.216;2024-03-29T01:23:48;54.00;;;24.47;;
12681;SDS011;6405;59.208;18.216;2024-03-29T01:26:14;71.23;;;23.80;;
12681;SDS011;6405;59.208;18.216;2024-03-29T01:28:42;53.80;;;24.73;;
12681;SDS011;6405;59.208;18.216;2024-03-29T01:31:08;65.27;;;24.50;;
12681;SDS011;6405;59.208;18.216;2024-03-29T01:33:34;63.30;;;24.67;;
12681;SDS011;6405;59.208;18.216;2024-03-29T01:36:05;72.40;;;24.30;;
12681;SDS011;6405;59.208;18.216;2024-03-29T01:38:34;52.80;;;24.87;;
12681;SDS011;6405;59.208;18.216;2024-03-29T01:41:00;55.37;;;23.20;;
12681;SDS011;6405;59.208;18.216;2024-03-29T01:43:27;55.57;;;23.93;;
12681;SDS011;6405;59.208;18.216;2024-03-29T01:45:54;50.40;;;23.80;;
12681;SDS011;6405;59.208;18.216;2024-03-29T01:48:21;52.87;;;24.20;;
12681;SDS011;6405;59.208;18.216;2024-03-29T01:50:48;47.83;;;24.40;;
12681;SDS011;6405;59.208;18.216;2024-03-29T01:53:15;63.73;;;25.87;;
12681;SDS011;6405;59.208;18.216;2024-03-29T01:55:43;55.00;;;25.57;;
12681;SDS011;6405;59.208;18.216;2024-03-29T01:58:09;51.20;;;23.90;;
12681;SDS011;6405;59.208;18.216;2024-03-29T02:00:39;49.33;;;24.97;;
12681;SDS011;6405;59.208;18.216;2024-03-29T02:03:09;46.83;;;24.63;;
12681;SDS011;6405;59.208;18.216;2024-03-29T02:05:38;45.60;;;24.00;;
12681;SDS011;6405;59.208;18.216;2024-03-29T02:08:05;53.57;;;25.37;;
12681;SDS011;6405;59.208;18.216;2024-03-29T02:10:32;52.70;;;23.90;;
12681;SDS011;6405;59.208;18.216;2024-03-29T02:12:59;47.83;;;25.57;;
12681;SDS011;6405;59.208;18.216;2024-03-29T02:15:25;45.97;;;24.87;;
12681;SDS011;6405;59.208;18.216;2024-03-29T02:17:51;44.00;;;24.20;;
12681;SDS011;6405;59.208;18.216;2024-03-29T02:20:16;46.53;;;25.10;;
12681;SDS011;6405;59.208;18.216;2024-03-29T02:22:45;41.83;;;23.07;;
12681;SDS011;6405;59.208;18.216;2024-03-29T02:25:15;39.63;;;23.73;;
12681;SDS011;6405;59.208;18.216;2024-03-29T02:27:41;44.63;;;24.00;;
12681;SDS011;6405;59.208;18.216;2024-03-29T02:30:07;41.80;;;22.13;;
12681;SDS011;6405;59.208;18.216;2024-03-29T02:32:33;46.10;;;24.30;;
12681;SDS011;6405;59.208;18.216;2024-03-29T02:34:59;44.33;;;23.70;;
12681;SDS011;6405;59.208;18.216;2024-03-29T02:37:25;48.30;;;24.43;;
12681;SDS011;6405;59.208;18.216;2024-03-29T02:39:50;51.23;;;24.00;;
12681;SDS011;6405;59.208;18.216;2024-03-29T02:42:16;51.43;;;24.00;;
12681;SDS011;6405;59.208;18.216;2024-03-29T02:44:42;50.10;;;24.10;;
12681;SDS011;6405;59.208;18.216;2024-03-29T02:47:07;47.77;;;24.07;;
12681;SDS011;6405;59.208;18.216;2024-03-29T02:49:33;43.73;;;23.03;;
12681;SDS011;6405;59.208;18.216;2024-03-29T02:51:59;41.90;;;22.37;;
12681;SDS011;6405;59.208;18.216;2024-03-29T02:54:24;47.10;;;22.87;;
12681;SDS011;6405;59.208;18.216;2024-03-29T02:56:50;45.37;;;23.20;;
12681;SDS011;6405;59.208;18.216;2024-03-29T02:59:16;44.67;;;21.23;;
12681;SDS011;6405;59.208;18.216;2024-03-29T03:01:41;47.27;;;22.67;;
12681;SDS011;6405;59.208;18.216;2024-03-29T03:04:07;42.17;;;21.57;;
12681;SDS011;6405;59.208;18.216;2024-03-29T03:06:33;45.67;;;22.00;;
12681;SDS011;6405;59.208;18.216;2024-03-29T03:08:58;44.57;;;22.80;;
12681;SDS011;6405;59.208;18.216;2024-03-29T03:11:43;44.47;;;20.87;;
12681;SDS011;6405;59.208;18.216;2024-03-29T03:14:08;47.83;;;23.80;;
12681;SDS011;6405;59.208;18.216;2024-03-29T03:16:34;43.53;;;22.90;;
12681;SDS011;6405;59.208;18.216;2024-03-29T03:19:00;45.03;;;21.80;;
12681;SDS011;6405;59.208;18.216;2024-03-29T03:21:26;48.70;;;22.67;;
12681;SDS011;6405;59.208;18.216;2024-03-29T03:23:51;45.40;;;23.07;;
12681;SDS011;6405;59.208;18.216;2024-03-29T03:26:17;44.87;;;21.77;;
12681;SDS011;6405;59.208;18.216;2024-03-29T03:28:43;50.90;;;22.53;;
12681;SDS011;6405;59.208;18.216;2024-03-29T03:31:08;50.60;;;23.47;;
12681;SDS011;6405;59.208;18.216;2024-03-29T03:33:34;47.87;;;23.97;;
12681;SDS011;6405;59.208;18.216;2024-03-29T03:36:00;47.57;;;23.60;;
12681;SDS011;6405;59.208;18.216;2024-03-29T03:38:25;54.47;;;24.77;;
12681;SDS011;6405;59.208;18.216;2024-03-29T03:40:51;54.47;;;25.00;;
12681;SDS011;6405;59.208;18.216;2024-03-29T03:43:17;55.70;;;25.23;;
12681;SDS011;6405;59.208;18.216;2024-03-29T03:45:42;48.70;;;23.17;;
12681;SDS011;6405;59.208;18.216;2024-03-29T03:48:14;51.27;;;23.67;;
12681;SDS011;6405;59.208;18.216;2024-03-29T03:50:40;53.13;;;24.10;;
12681;SDS011;6405;59.208;18.216;2024-03-29T03:53:06;51.47;;;22.80;;
12681;SDS011;6405;59.208;18.216;2024-03-29T03:55:39;51.03;;;22.97;;
12681;SDS011;6405;59.208;18.216;2024-03-29T03:58:05;47.40;;;23.13;;
12681;SDS011;6405;59.208;18.216;2024-03-29T04:00:30;44.00;;;21.17;;
12681;SDS011;6405;59.208;18.216;2024-03-29T04:02:56;46.30;;;22.97;;
12681;SDS011;6405;59.208;18.216;2024-03-29T04:05:22;48.63;;;22.70;;
12681;SDS011;6405;59.208;18.216;2024-03-29T04:07:48;51.27;;;24.53;;
12681;SDS011;6405;59.208;18.216;2024-03-29T04:10:14;46.83;;;23.03;;
12681;SDS011;6405;59.208;18.216;2024-03-29T04:12:40;47.27;;;23.67;;
12681;SDS011;6405;59.208;18.216;2024-03-29T04:15:06;45.80;;;22.20;;
12681;SDS011;6405;59.208;18.216;2024-03-29T04:17:32;45.50;;;22.77;;
12681;SDS011;6405;59.208;18.216;2024-03-29T04:19:58;44.13;;;22.83;;
12681;SDS011;6405;59.208;18.216;2024-03-29T04:22:24;47.47;;;23.57;;
12681;SDS011;6405;59.208;18.216;2024-03-29T04:24:52;42.10;;;21.73;;
12681;SDS011;6405;59.208;18.216;2024-03-29T04:27:18;44.37;;;21.57;;
12681;SDS011;6405;59.208;18.216;2024-03-29T04:29:44;43.83;;;22.40;;
12681;SDS011;6405;59.208;18.216;2024-03-29T04:32:10;42.60;;;22.37;;
12681;SDS011;6405;59.208;18.216;2024-03-29T04:34:36;45.37;;;22.07;;
12681;SDS011;6405;59.208;18.216;2024-03-29T04:37:01;41.37;;;21.20;;
12681;SDS011;6405;59.208;18.216;2024-03-29T04:39:27;45.53;;;22.73;;
12681;SDS011;6405;59.208;18.216;2024-03-29T04:41:53;43.77;;;22.23;;
12681;SDS011;6405;59.208;18.216;2024-03-29T04:44:27;38.17;;;20.03;;
12681;SDS011;6405;59.208;18.216;2024-03-29T04:46:53;41.23;;;20.50;;
12681;SDS011;6405;59.208;18.216;2024-03-29T04:49:21;39.57;;;22.10;;
12681;SDS011;6405;59.208;18.216;2024-03-29T04:51:54;40.87;;;21.10;;
12681;SDS011;6405;59.208;18.216;2024-03-29T04:54:19;38.37;;;19.40;;
12681;SDS011;6405;59.208;18.216;2024-03-29T04:56:45;42.13;;;21.43;;
12681;SDS011;6405;59.208;18.216;2024-03-29T04:59:11;40.90;;;20.53;;
12681;SDS011;6405;59.208;18.216;2024-03-29T05:01:37;39.33;;;20.37;;
12681;SDS011;6405;59.208;18.216;2024-03-29T05:04:03;44.53;;;21.40;;
12681;SDS011;6405;59.208;18.216;2024-03-29T05:06:29;37.20;;;19.87;;
12681;SDS011;6405;59.208;18.216;2024-03-29T05:08:55;40.33;;;20.73;;
12681;SDS011;6405;59.208;18.216;2024-03-29T05:11:21;40.77;;;21.23;;
12681;SDS011;6405;59.208;18.216;2024-03-29T05:13:47;39.57;;;21.33;;
12681;SDS011;6405;59.208;18.216;2024-03-29T05:16:13;35.77;;;20.70;;
12681;SDS011;6405;59.208;18.216;2024-03-29T05:18:40;42.07;;;20.33;;
12681;SDS011;6405;59.208;18.216;2024-03-29T05:21:05;38.47;;;19.97;;
12681;SDS011;6405;59.208;18.216;2024-03-29T05:23:31;41.10;;;21.23;;
12681;SDS011;6405;59.208;18.216;2024-03-29T05:25:57;38.80;;;20.83;;
12681;SDS011;6405;59.208;18.216;2024-03-29T05:28:22;40.43;;;20.43;;
12681;SDS011;6405;59.208;18.216;2024-03-29T05:30:48;43.50;;;20.53;;
12681;SDS011;6405;59.208;18.216;2024-03-29T05:33:14;33.97;;;18.33;;
12681;SDS011;6405;59.208;18.216;2024-03-29T05:35:40;40.20;;;22.00;;
12681;SDS011;6405;59.208;18.216;2024-03-29T05:38:06;41.73;;;19.47;;
12681;SDS011;6405;59.208;18.216;2024-03-29T05:40:32;36.87;;;19.83;;
12681;SDS011;6405;59.208;18.216;2024-03-29T05:42:58;40.57;;;21.40;;
12681;SDS011;6405;59.208;18.216;2024-03-29T05:45:27;38.57;;;19.63;;
12681;SDS011;6405;59.208;18.216;2024-03-29T05:47:54;36.93;;;20.10;;
12681;SDS011;6405;59.208;18.216;2024-03-29T05:50:21;36.00;;;19.80;;
12681;SDS011;6405;59.208;18.216;2024-03-29T05:52:47;34.43;;;18.83;;
12681;SDS011;6405;59.208;18.216;2024-03-29T05:55:13;33.50;;;20.00;;
12681;SDS011;6405;59.208;18.216;2024-03-29T05:57:39;34.80;;;18.63;;
12681;SDS011;6405;59.208;18.216;2024-03-29T06:00:07;34.57;;;18.43;;
12681;SDS011;6405;59.208;18.216;2024-03-29T06:02:36;35.67;;;18.57;;
12681;SDS011;6405;59.208;18.216;2024-03-29T06:05:01;31.10;;;18.60;;
12681;SDS011;6405;59.208;18.216;2024-03-29T06:07:27;34.03;;;19.33;;
12681;SDS011;6405;59.208;18.216;2024-03-29T06:09:54;31.60;;;17.30;;
12681;SDS011;6405;59.208;18.216;2024-03-29T06:12:20;31.53;;;18.90;;
12681;SDS011;6405;59.208;18.216;2024-03-29T06:14:45;29.70;;;18.37;;
12681;SDS011;6405;59.208;18.216;2024-03-29T06:17:30;31.47;;;18.70;;
12681;SDS011;6405;59.208;18.216;2024-03-29T06:19:56;31.83;;;18.67;;
12681;SDS011;6405;59.208;18.216;2024-03-29T06:22:22;34.10;;;18.60;;
12681;SDS011;6405;59.208;18.216;2024-03-29T06:24:49;31.70;;;17.80;;
12681;SDS011;6405;59.208;18.216;2024-03-29T06:27:19;30.43;;;17.73;;
12681;SDS011;6405;59.208;18.216;2024-03-29T06:29:47;31.27;;;17.53;;
12681;SDS011;6405;59.208;18.216;2024-03-29T06:32:15;30.63;;;17.17;;
12681;SDS011;6405;59.208;18.216;2024-03-29T06:34:41;31.87;;;17.33;;
12681;SDS011;6405;59.208;18.216;2024-03-29T06:37:07;32.43;;;17.80;;
12681;SDS011;6405;59.208;18.216;2024-03-29T06:39:32;32.93;;;16.93;;
12681;SDS011;6405;59.208;18.216;2024-03-29T06:41:58;32.90;;;17.57;;
12681;SDS011;6405;59.208;18.216;2024-03-29T06:44:24;31.20;;;17.87;;
12681;SDS011;6405;59.208;18.216;2024-03-29T06:46:50;36.00;;;18.30;;
12681;SDS011;6405;59.208;18.216;2024-03-29T06:49:16;30.50;;;16.77;;
12681;SDS011;6405;59.208;18.216;2024-03-29T06:51:42;33.73;;;17.67;;
12681;SDS011;6405;59.208;18.216;2024-03-29T06:54:08;34.03;;;17.97;;
12681;SDS011;6405;59.208;18.216;2024-03-29T06:56:34;34.33;;;17.20;;
12681;SDS011;6405;59.208;18.216;2024-03-29T06:59:00;30.50;;;17.57;;
12681;SDS011;6405;59.208;18.216;2024-03-29T07:01:26;32.17;;;17.23;;
12681;SDS011;6405;59.208;18.216;2024-03-29T07:03:51;31.33;;;16.80;;
12681;SDS011;6405;59.208;18.216;2024-03-29T07:06:17;32.37;;;16.90;;
12681;SDS011;6405;59.208;18.216;2024-03-29T07:08:43;34.13;;;17.53;;
12681;SDS011;6405;59.208;18.216;2024-03-29T07:11:08;28.17;;;17.47;;
12681;SDS011;6405;59.208;18.216;2024-03-29T07:13:35;30.17;;;15.27;;
12681;SDS011;6405;59.208;18.216;2024-03-29T07:16:02;30.20;;;17.83;;
12681;SDS011;6405;59.208;18.216;2024-03-29T07:18:28;30.43;;;16.40;;
12681;SDS011;6405;59.208;18.216;2024-03-29T07:20:54;31.93;;;17.87;;
12681;SDS011;6405;59.208;18.216;2024-03-29T07:23:20;29.53;;;16.87;;
12681;SDS011;6405;59.208;18.216;2024-03-29T07:28:28;25.43;;;15.60;;
12681;SDS011;6405;59.208;18.216;2024-03-29T07:30:54;26.57;;;15.23;;
12681;SDS011;6405;59.208;18.216;2024-03-29T07:33:20;23.33;;;14.47;;
12681;SDS011;6405;59.208;18.216;2024-03-29T07:35:51;21.80;;;13.03;;
12681;SDS011;6405;59.208;18.216;2024-03-29T07:38:18;24.73;;;13.63;;
12681;SDS011;6405;59.208;18.216;2024-03-29T07:40:45;19.57;;;12.40;;
12681;SDS011;6405;59.208;18.216;2024-03-29T07:43:12;19.30;;;12.73;;
12681;SDS011;6405;59.208;18.216;2024-03-29T07:45:39;19.60;;;12.27;;
12681;SDS011;6405;59.208;18.216;2024-03-29T07:48:06;19.13;;;12.10;;
12681;SDS011;6405;59.208;18.216;2024-03-29T07:50:34;17.47;;;11.07;;
12681;SDS011;6405;59.208;18.216;2024-03-29T07:53:01;20.10;;;12.37;;
12681;SDS011;6405;59.208;18.216;2024-03-29T07:55:27;18.97;;;11.57;;
12681;SDS011;6405;59.208;18.216;2024-03-29T07:57:52;19.10;;;11.90;;
12681;SDS011;6405;59.208;18.216;2024-03-29T08:00:18;17.00;;;10.97;;
12681;SDS011;6405;59.208;18.216;2024-03-29T08:02:44;16.57;;;10.90;;
12681;SDS011;6405;59.208;18.216;2024-03-29T08:05:11;16.67;;;10.60;;
12681;SDS011;6405;59.208;18.216;2024-03-29T08:07:36;17.47;;;10.67;;
12681;SDS011;6405;59.208;18.216;2024-03-29T08:10:02;16.30;;;10.57;;
12681;SDS011;6405;59.208;18.216;2024-03-29T08:12:28;16.63;;;10.93;;
12681;SDS011;6405;59.208;18.216;2024-03-29T08:14:54;16.73;;;11.10;;
12681;SDS011;6405;59.208;18.216;2024-03-29T08:17:19;14.63;;;11.17;;
12681;SDS011;6405;59.208;18.216;2024-03-29T08:19:45;15.07;;;9.90;;
12681;SDS011;6405;59.208;18.216;2024-03-29T08:22:10;14.93;;;9.07;;
12681;SDS011;6405;59.208;18.216;2024-03-29T08:24:37;12.70;;;8.13;;
12681;SDS011;6405;59.208;18.216;2024-03-29T08:27:03;13.07;;;9.13;;
12681;SDS011;6405;59.208;18.216;2024-03-29T08:29:28;13.07;;;8.27;;
12681;SDS011;6405;59.208;18.216;2024-03-29T08:31:54;15.70;;;9.37;;
12681;SDS011;6405;59.208;18.216;2024-03-29T08:34:20;12.27;;;9.30;;
12681;SDS011;6405;59.208;18.216;2024-03-29T08:36:46;14.63;;;8.70;;
12681;SDS011;6405;59.208;18.216;2024-03-29T08:39:12;11.27;;;8.30;;
12681;SDS011;6405;59.208;18.216;2024-03-29T08:41:38;10.73;;;8.03;;
12681;SDS011;6405;59.208;18.216;2024-03-29T08:44:04;12.17;;;8.53;;
12681;SDS011;6405;59.208;18.216;2024-03-29T08:46:30;11.90;;;8.80;;
12681;SDS011;6405;59.208;18.216;2024-03-29T08:48:55;11.60;;;8.20;;
12681;SDS011;6405;59.208;18.216;2024-03-29T08:51:21;11.00;;;7.57;;
12681;SDS011;6405;59.208;18.216;2024-03-29T08:53:47;11.80;;;8.23;;
12681;SDS011;6405;59.208;18.216;2024-03-29T08:56:13;11.10;;;7.77;;
12681;SDS011;6405;59.208;18.216;2024-03-29T08:58:40;10.53;;;6.93;;
12681;SDS011;6405;59.208;18.216;2024-03-29T09:01:06;10.77;;;7.37;;
12681;SDS011;6405;59.208;18.216;2024-03-29T09:03:32;9.27;;;7.10;;
12681;SDS011;6405;59.208;18.216;2024-03-29T09:05:58;8.67;;;6.00;;
12681;SDS011;6405;59.208;18.216;2024-03-29T09:08:24;10.40;;;6.43;;
12681;SDS011;6405;59.208;18.216;2024-03-29T09:10:50;8.93;;;6.53;;
12681;SDS011;6405;59.208;18.216;2024-03-29T09:13:16;9.77;;;6.13;;
12681;SDS011;6405;59.208;18.216;2024-03-29T09:15:41;8.40;;;6.17;;
12681;SDS011;6405;59.208;18.216;2024-03-29T09:18:07;8.03;;;6.07;;
12681;SDS011;6405;59.208;18.216;2024-03-29T09:20:43;9.23;;;6.00;;
12681;SDS011;6405;59.208;18.216;2024-03-29T09:23:10;9.80;;;5.70;;
12681;SDS011;6405;59.208;18.216;2024-03-29T09:25:40;6.87;;;5.27;;
12681;SDS011;6405;59.208;18.216;2024-03-29T09:28:06;5.90;;;4.27;;
12681;SDS011;6405;59.208;18.216;2024-03-29T09:30:31;8.33;;;5.10;;
12681;SDS011;6405;59.208;18.216;2024-03-29T09:32:57;7.17;;;4.77;;
12681;SDS011;6405;59.208;18.216;2024-03-29T09:35:23;6.53;;;5.27;;
12681;SDS011;6405;59.208;18.216;2024-03-29T09:37:50;6.50;;;4.83;;
12681;SDS011;6405;59.208;18.216;2024-03-29T09:40:15;6.70;;;4.90;;
12681;SDS011;6405;59.208;18.216;2024-03-29T09:42:43;6.40;;;4.23;;
12681;SDS011;6405;59.208;18.216;2024-03-29T09:45:10;5.97;;;4.60;;
12681;SDS011;6405;59.208;18.216;2024-03-29T09:47:36;8.27;;;4.77;;
12681;SDS011;6405;59.208;18.216;2024-03-29T09:50:04;5.97;;;4.30;;
12681;SDS011;6405;59.208;18.216;2024-03-29T09:52:32;6.77;;;4.43;;
12681;SDS011;6405;59.208;18.216;2024-03-29T09:55:00;7.33;;;4.87;;
12681;SDS011;6405;59.208;18.216;2024-03-29T09:57:26;7.00;;;4.50;;
12681;SDS011;6405;59.208;18.216;2024-03-29T09:59:56;5.63;;;4.17;;
12681;SDS011;6405;59.208;18.216;2024-03-29T10:02:21;7.03;;;4.27;;
12681;SDS011;6405;59.208;18.216;2024-03-29T10:04:52;6.77;;;4.57;;
12681;SDS011;6405;59.208;18.216;2024-03-29T10:07:20;6.33;;;4.27;;
12681;SDS011;6405;59.208;18.216;2024-03-29T10:09:47;4.97;;;4.00;;
12681;SDS011;6405;59.208;18.216;2024-03-29T10:12:13;7.50;;;4.50;;
12681;SDS011;6405;59.208;18.216;2024-03-29T10:14:45;8.00;;;4.73;;
12681;SDS011;6405;59.208;18.216;2024-03-29T10:17:17;6.03;;;4.30;;
12681;SDS011;6405;59.208;18.216;2024-03-29T10:19:44;5.97;;;3.53;;
12681;SDS011;6405;59.208;18.216;2024-03-29T10:22:10;5.07;;;4.07;;
12681;SDS011;6405;59.208;18.216;2024-03-29T10:24:36;5.03;;;4.00;;
12681;SDS011;6405;59.208;18.216;2024-03-29T10:27:02;4.97;;;4.13;;
12681;SDS011;6405;59.208;18.216;2024-03-29T10:29:28;5.43;;;3.70;;
12681;SDS011;6405;59.208;18.216;2024-03-29T10:31:57;5.07;;;4.40;;
12681;SDS011;6405;59.208;18.216;2024-03-29T10:34:26;7.17;;;4.07;;
12681;SDS011;6405;59.208;18.216;2024-03-29T10:36:58;7.13;;;4.00;;
12681;SDS011;6405;59.208;18.216;2024-03-29T10:39:25;4.97;;;3.83;;
12681;SDS011;6405;59.208;18.216;2024-03-29T10:41:51;8.23;;;4.30;;
12681;SDS011;6405;59.208;18.216;2024-03-29T10:44:18;6.27;;;4.70;;
12681;SDS011;6405;59.208;18.216;2024-03-29T10:46:45;6.90;;;3.80;;
12681;SDS011;6405;59.208;18.216;2024-03-29T10:49:15;7.30;;;4.40;;
12681;SDS011;6405;59.208;18.216;2024-03-29T10:51:42;5.77;;;4.00;;
12681;SDS011;6405;59.208;18.216;2024-03-29T10:54:08;6.07;;;3.97;;
12681;SDS011;6405;59.208;18.216;2024-03-29T10:56:38;5.40;;;4.47;;
12681;SDS011;6405;59.208;18.216;2024-03-29T10:59:32;7.00;;;4.67;;
12681;SDS011;6405;59.208;18.216;2024-03-29T11:02:05;6.50;;;4.20;;
12681;SDS011;6405;59.208;18.216;2024-03-29T11:04:45;5.97;;;4.40;;
12681;SDS011;6405;59.208;18.216;2024-03-29T11:07:15;5.87;;;3.67;;
12681;SDS011;6405;59.208;18.216;2024-03-29T11:09:48;5.60;;;3.93;;
12681;SDS011;6405;59.208;18.216;2024-03-29T11:12:22;6.00;;;4.40;;
12681;SDS011;6405;59.208;18.216;2024-03-29T11:14:50;7.80;;;3.97;;
12681;SDS011;6405;59.208;18.216;2024-03-29T11:17:27;7.10;;;4.10;;
12681;SDS011;6405;59.208;18.216;2024-03-29T11:19:55;8.50;;;4.37;;
12681;SDS011;6405;59.208;18.216;2024-03-29T11:22:23;6.43;;;3.93;;
12681;SDS011;6405;59.208;18.216;2024-03-29T11:24:53;5.00;;;3.80;;
12681;SDS011;6405;59.208;18.216;2024-03-29T11:27:22;5.50;;;4.17;;
12681;SDS011;6405;59.208;18.216;2024-03-29T11:29:48;6.70;;;4.13;;
12681;SDS011;6405;59.208;18.216;2024-03-29T11:32:15;4.13;;;3.53;;
12681;SDS011;6405;59.208;18.216;2024-03-29T11:34:59;4.00;;;3.53;;
12681;SDS011;6405;59.208;18.216;2024-03-29T11:37:29;5.40;;;3.73;;
12681;SDS011;6405;59.208;18.216;2024-03-29T11:39:58;5.13;;;3.40;;
12681;SDS011;6405;59.208;18.216;2024-03-29T11:45:10;5.57;;;2.87;;
12681;SDS011;6405;59.208;18.216;2024-03-29T11:47:37;4.07;;;3.30;;
12681;SDS011;6405;59.208;18.216;2024-03-29T11:50:05;3.07;;;2.60;;
12681;SDS011;6405;59.208;18.216;2024-03-29T11:52:33;2.93;;;2.63;;
12681;SDS011;6405;59.208;18.216;2024-03-29T11:54:59;5.07;;;2.50;;
12681;SDS011;6405;59.208;18.216;2024-03-29T11:57:25;3.77;;;2.50;;
12681;SDS011;6405;59.208;18.216;2024-03-29T11:59:50;2.83;;;2.20;;
12681;SDS011;6405;59.208;18.216;2024-03-29T12:02:17;2.20;;;1.70;;
12681;SDS011;6405;59.208;18.216;2024-03-29T12:04:43;3.50;;;2.23;;
12681;SDS011;6405;59.208;18.216;2024-03-29T12:07:09;2.30;;;1.80;;
12681;SDS011;6405;59.208;18.216;2024-03-29T12:09:35;4.00;;;2.10;;
12681;SDS011;6405;59.208;18.216;2024-03-29T12:12:04;1.90;;;1.70;;
12681;SDS011;6405;59.208;18.216;2024-03-29T12:14:34;2.67;;;1.90;;
12681;SDS011;6405;59.208;18.216;2024-03-29T12:17:08;2.00;;;1.73;;
12681;SDS011;6405;59.208;18.216;2024-03-29T12:19:37;3.00;;;1.57;;
12681;SDS011;6405;59.208;18.216;2024-03-29T12:22:06;4.23;;;1.63;;
12681;SDS011;6405;59.208;18.216;2024-03-29T12:24:32;1.43;;;1.20;;
12681;SDS011;6405;59.208;18.216;2024-03-29T12:26:58;4.73;;;1.57;;
12681;SDS011;6405;59.208;18.216;2024-03-29T12:29:24;3.80;;;2.00;;
12681;SDS011;6405;59.208;18.216;2024-03-29T12:31:58;2.17;;;1.50;;
12681;SDS011;6405;59.208;18.216;2024-03-29T12:34:25;2.73;;;1.73;;
12681;SDS011;6405;59.208;18.216;2024-03-29T12:36:50;2.23;;;1.30;;
12681;SDS011;6405;59.208;18.216;2024-03-29T12:39:16;2.13;;;1.23;;
12681;SDS011;6405;59.208;18.216;2024-03-29T12:41:42;2.87;;;1.17;;
12681;SDS011;6405;59.208;18.216;2024-03-29T12:44:09;1.57;;;1.00;;
12681;SDS011;6405;59.208;18.216;2024-03-29T12:46:36;1.70;;;1.20;;
12681;SDS011;6405;59.208;18.216;2024-03-29T12:49:02;2.97;;;1.40;;
12681;SDS011;6405;59.208;18.216;2024-03-29T12:51:28;3.43;;;1.43;;
12681;SDS011;6405;59.208;18.216;2024-03-29T12:54:01;3.47;;;1.67;;
12681;SDS011;6405;59.208;18.216;2024-03-29T12:56:29;2.37;;;1.20;;
12681;SDS011;6405;59.208;18.216;2024-03-29T12:58:55;4.13;;;1.30;;
12681;SDS011;6405;59.208;18.216;2024-03-29T13:01:21;2.50;;;1.40;;
12681;SDS011;6405;59.208;18.216;2024-03-29T13:03:47;2.73;;;1.30;;
12681;SDS011;6405;59.208;18.216;2024-03-29T13:06:13;1.60;;;0.90;;
12681;SDS011;6405;59.208;18.216;2024-03-29T13:08:39;1.43;;;1.17;;
12681;SDS011;6405;59.208;18.216;2024-03-29T13:11:04;3.07;;;1.33;;
12681;SDS011;6405;59.208;18.216;2024-03-29T13:13:30;3.13;;;1.23;;
12681;SDS011;6405;59.208;18.216;2024-03-29T13:15:56;1.97;;;0.97;;
12681;SDS011;6405;59.208;18.216;2024-03-29T13:18:22;2.67;;;1.10;;
12681;SDS011;6405;59.208;18.216;2024-03-29T13:20:47;1.50;;;1.10;;
12681;SDS011;6405;59.208;18.216;2024-03-29T13:23:13;2.33;;;0.97;;
12681;SDS011;6405;59.208;18.216;2024-03-29T13:25:39;3.40;;;1.20;;
12681;SDS011;6405;59.208;18.216;2024-03-29T13:28:05;1.87;;;0.90;;
12681;SDS011;6405;59.208;18.216;2024-03-29T13:30:32;2.70;;;0.93;;
12681;SDS011;6405;59.208;18.216;2024-03-29T13:32:58;2.10;;;0.90;;
12681;SDS011;6405;59.208;18.216;2024-03-29T13:35:24;1.10;;;1.00;;
12681;SDS011;6405;59.208;18.216;2024-03-29T13:37:50;1.67;;;0.90;;
12681;SDS011;6405;59.208;18.216;2024-03-29T13:40:19;1.70;;;0.80;;
12681;SDS011;6405;59.208;18.216;2024-03-29T13:42:46;4.30;;;1.20;;
12681;SDS011;6405;59.208;18.216;2024-03-29T13:45:13;1.90;;;0.73;;
12681;SDS011;6405;59.208;18.216;2024-03-29T13:47:40;1.87;;;1.00;;
12681;SDS011;6405;59.208;18.216;2024-03-29T13:50:07;1.20;;;0.63;;
12681;SDS011;6405;59.208;18.216;2024-03-29T13:52:34;4.70;;;1.60;;
12681;SDS011;6405;59.208;18.216;2024-03-29T13:55:00;1.20;;;0.80;;
12681;SDS011;6405;59.208;18.216;2024-03-29T13:57:27;14.50;;;4.97;;
12681;SDS011;6405;59.208;18.216;2024-03-29T13:59:53;15.97;;;4.43;;
12681;SDS011;6405;59.208;18.216;2024-03-29T14:02:19;1.93;;;1.00;;
12681;SDS011;6405;59.208;18.216;2024-03-29T14:04:45;7.03;;;2.90;;
12681;SDS011;6405;59.208;18.216;2024-03-29T14:07:12;8.77;;;3.27;;
12681;SDS011;6405;59.208;18.216;2024-03-29T14:09:40;2.43;;;1.03;;
12681;SDS011;6405;59.208;18.216;2024-03-29T14:12:06;3.30;;;0.80;;
12681;SDS011;6405;59.208;18.216;2024-03-29T14:14:32;7.90;;;2.70;;
12681;SDS011;6405;59.208;18.216;2024-03-29T14:16:58;10.60;;;3.03;;
12681;SDS011;6405;59.208;18.216;2024-03-29T14:19:29;3.40;;;1.30;;
12681;SDS011;6405;59.208;18.216;2024-03-29T14:22:02;4.10;;;1.47;;
12681;SDS011;6405;59.208;18.216;2024-03-29T14:24:28;3.07;;;1.27;;
12681;SDS011;6405;59.208;18.216;2024-03-29T14:26:58;4.07;;;1.67;;
12681;SDS011;6405;59.208;18.216;2024-03-29T14:29:24;2.17;;;0.80;;
12681;SDS011;6405;59.208;18.216;2024-03-29T14:31:50;5.30;;;1.70;;
12681;SDS011;6405;59.208;18.216;2024-03-29T14:34:18;10.53;;;3.27;;